aviador You're here:

KARA Decoded Metar

LOUISIANA in LA, USA
Report Time2017-04-28 07:53:00
UTC Time2017-04-28 08:12:20
Flight Rules vfr VFR
Wind160° at 15 Gusting to 23 kt
W.Decomp.*RWY 16: 15.0 kt HW 0.8 kt LCW
W.Rank160° ranks 7
Current wind is above 160° avg. (8.1)
Visibility9999 m
Phenomena:N/A
Clouds:Scattered 012 Hf
Overcast 030 Hf
Expected CloudBase > 1,600 ft AGL from Temp-Dew spread
Ceiling3,000 ft
Temp26°C (ISA +11)
Dew Point22°C (79% RH)
AAT25.3°C
QNH1006 hPa
Density Alt1,929 ft
Elevation59 ft
Report Wrong Elevation
Raw Report
KARA 280753Z AUTO 16015G23KT 8SM SCT012 OVC030 26/22 A2971 RMK AO2
SLP061 T02560222=

Extra information for KARA:More info

Metar Taf Metar & Taf Last 4 Metars F.Rules Stats Wind Profile Meteogram Temp Stats Airport Information Weather charts Add Link Nearby VenuesMetar ALERT Operation Metar Decoded Social comments

AIRNAV info for KARA